EndleSS Horizon — D5AE4 — position and weather

sailwx.info

Track history (hours):
 
Tides and Currents Weather Stations Pressure Air Temp Water Temp Dewpoint Dewpoint Depression Visibility Wind Speed Wind Dir Waves Ship Positions

EndleSS Horizon

Last reported at 2018-Feb-21 14:35 UTC. Time now 2018-Feb-21 15:38 UTC.
Position N 29°44' W 095°07'.

Length 189 m; draft 6.8 m.

Type: Cargo ship. MMSI: 636015358.

Date/timePositionNaut miles runAvg speedWind from/ knotsBaromVisibWave heightAir tempDewpointWater temp
2018-Feb-21 14:35N 29°44' W 095°07'0 0.1
2018-Feb-21 14:29N 29°44' W 095°07'0 0.0
2018-Feb-21 13:59N 29°44' W 095°07'0 0.0
2018-Feb-21 13:29N 29°44' W 095°07'0 0.0
2018-Feb-21 12:59N 29°44' W 095°07'0 0.0
2018-Feb-21 12:23N 29°44' W 095°07'0 0.0
2018-Feb-21 11:59N 29°44' W 095°07'0 0.0
2018-Feb-21 11:26N 29°44' W 095°07'0 0.0
2018-Feb-21 10:59N 29°44' W 095°07'0 0.0
2018-Feb-21 10:29N 29°44' W 095°07'0 0.0
2018-Feb-21 09:59N 29°44' W 095°07'0 0.0
2018-Feb-21 09:23N 29°44' W 095°07'0 0.0
2018-Feb-21 08:59N 29°44' W 095°07'0 0.0
2018-Feb-21 08:29N 29°44' W 095°07'0 0.0
2018-Feb-21 07:59N 29°44' W 095°07'0 0.0
2018-Feb-21 07:29N 29°44' W 095°07'0 0.0
2018-Feb-21 06:59N 29°44' W 095°07'0 0.0
2018-Feb-21 06:29N 29°44' W 095°07'0 0.0
2018-Feb-21 05:59N 29°44' W 095°07'0 0.0
2018-Feb-21 05:29N 29°44' W 095°07'0 0.0
2018-Feb-21 04:59N 29°44' W 095°07'0 0.0
2018-Feb-21 04:29N 29°44' W 095°07'0 0.0
2018-Feb-21 03:59N 29°44' W 095°07'0 0.0
2018-Feb-21 03:29N 29°44' W 095°07'0 0.0
2018-Feb-21 02:59N 29°44' W 095°07'0 0.0
2018-Feb-21 02:29N 29°44' W 095°07'0 0.0
2018-Feb-21 01:59N 29°44' W 095°07'0 0.0
2018-Feb-21 01:29N 29°44' W 095°07'0 0.0
2018-Feb-21 00:59N 29°44' W 095°07'0 0.1
2018-Feb-21 00:27N 29°44' W 095°07'3 5.3
2018-Feb-20 23:55N 29°44' W 095°03'3 8.0
2018-Feb-20 23:31N 29°42' W 095°01'510.4
2018-Feb-20 23:01N 29°38' W 094°58'612.2
2018-Feb-20 22:31N 29°32' W 094°54'611.7
2018-Feb-20 22:01N 29°27' W 094°51'611.1
2018-Feb-20 21:30N 29°22' W 094°48'1410.5
2018-Feb-20 20:13N 29°17' W 094°34'1 4.9
2018-Feb-20 20:01N 29°16' W 094°33'2 3.7
2018-Feb-20 19:29N 29°15' W 094°31'4 0.9
2018-Feb-20 14:24N 29°11' W 094°33'0 0.0
2018-Feb-20 13:42N 29°11' W 094°33'0 0.0
2018-Feb-20 13:18N 29°11' W 094°33'0 0.0
2018-Feb-20 12:57N 29°11' W 094°33'0 0.0
2018-Feb-20 12:30N 29°11' W 094°33'0 0.0
2018-Feb-20 09:48N 29°11' W 094°33'0 0.0
2018-Feb-20 09:06N 29°11' W 094°33'0 0.0
2018-Feb-20 07:03N 29°11' W 094°33'0 0.0
2018-Feb-20 06:51N 29°11' W 094°33'0 0.0
2018-Feb-20 06:30N 29°11' W 094°33'0 0.0
2018-Feb-19 19:18N 29°11' W 094°33'0 0.0
2018-Feb-19 17:57N 29°11' W 094°33'0 0.0
2018-Feb-19 17:30N 29°11' W 094°33'0 0.0
2018-Feb-19 16:39N 29°11' W 094°33'0 0.0
2018-Feb-19 16:15N 29°11' W 094°33'0 0.0
2018-Feb-19 15:57N 29°11' W 094°33'0 0.0
2018-Feb-19 15:30N 29°11' W 094°33'0 0.0
2018-Feb-19 14:18N 29°11' W 094°33'0 0.0
2018-Feb-19 13:48N 29°11' W 094°33'0 0.0
2018-Feb-19 13:21N 29°11' W 094°33'0 0.0
2018-Feb-19 12:42N 29°11' W 094°33'0 0.0
2018-Feb-19 12:24N 29°11' W 094°33'0 0.0
2018-Feb-19 11:54N 29°11' W 094°33'0 0.0
2018-Feb-19 11:27N 29°11' W 094°33'0 0.0
2018-Feb-19 11:00N 29°11' W 094°33'0 0.0
2018-Feb-19 10:30N 29°11' W 094°33'0 0.0
2018-Feb-19 10:00N 29°11' W 094°33'0 0.0
2018-Feb-19 09:24N 29°11' W 094°33'0 0.0
2018-Feb-19 08:57N 29°11' W 094°33'0 0.0
2018-Feb-19 08:30N 29°11' W 094°33'0 0.0
2018-Feb-19 07:51N 29°11' W 094°33'0 0.0
2018-Feb-19 07:30N 29°11' W 094°33'0 0.0
2018-Feb-19 07:00N 29°11' W 094°33'0 0.0
2018-Feb-19 06:27N 29°11' W 094°33'0 0.0
2018-Feb-19 06:00N 29°11' W 094°33'0 0.0
2018-Feb-19 05:18N 29°11' W 094°33'0 0.0
2018-Feb-19 05:00N 29°11' W 094°33'0 0.0
2018-Feb-19 04:27N 29°11' W 094°33'0 0.0
2018-Feb-19 03:48N 29°11' W 094°33'0 0.0
2018-Feb-19 02:33N 29°11' W 094°33'0 0.0
2018-Feb-19 02:12N 29°11' W 094°33'0 0.0
2018-Feb-19 01:42N 29°11' W 094°33'0 0.0
2018-Feb-19 01:06N 29°11' W 094°33'0 0.0
2018-Feb-18 22:51N 29°11' W 094°33'0 0.0
2018-Feb-18 19:27N 29°11' W 094°33'0 0.0
2018-Feb-18 18:57N 29°11' W 094°33'0 0.0
2018-Feb-18 18:18N 29°11' W 094°33'0 0.0
2018-Feb-18 17:06N 29°11' W 094°33'0 0.0
2018-Feb-18 16:45N 29°11' W 094°33'0 0.0
2018-Feb-18 09:36N 29°11' W 094°33'0 0.0
2018-Feb-18 09:18N 29°11' W 094°33'0 0.0
2018-Feb-18 09:00N 29°11' W 094°33'0 0.0
2018-Feb-18 08:30N 29°11' W 094°33'0 0.0
2018-Feb-18 08:00N 29°11' W 094°33'0 0.0
2018-Feb-18 07:30N 29°11' W 094°33'0 0.1
2018-Feb-18 07:00N 29°11' W 094°33'0 0.0
2018-Feb-18 06:21N 29°11' W 094°33'0 0.0
2018-Feb-18 06:00N 29°11' W 094°33'0 0.0
2018-Feb-18 05:30N 29°11' W 094°33'0 0.0
2018-Feb-18 05:00N 29°11' W 094°33'0 0.0
2018-Feb-18 04:30N 29°11' W 094°33'0 0.0
2018-Feb-18 03:30N 29°11' W 094°33'0 0.0
2018-Feb-18 02:03N 29°11' W 094°33'0 0.0
2018-Feb-18 01:45N 29°11' W 094°33'0 0.0
2018-Feb-18 01:27N 29°11' W 094°33'0 0.0
2018-Feb-18 00:57N 29°11' W 094°33'0 0.0
2018-Feb-18 00:09N 29°11' W 094°33'0 0.0
2018-Feb-17 23:48N 29°11' W 094°33'0 0.1
2018-Feb-17 23:27N 29°11' W 094°33'0 0.0
2018-Feb-17 22:51N 29°11' W 094°33'0 0.0
2018-Feb-17 22:30N 29°11' W 094°33'0 0.0
2018-Feb-17 21:57N 29°11' W 094°33'0 0.0
2018-Feb-17 21:21N 29°11' W 094°33'0 0.0
2018-Feb-17 17:24N 29°11' W 094°33'0 0.0
2018-Feb-17 12:51N 29°11' W 094°33'0 0.0
2018-Feb-17 12:21N 29°11' W 094°33'0 0.0
2018-Feb-17 12:00N 29°11' W 094°33'0 0.0
2018-Feb-17 11:24N 29°11' W 094°33'0 0.0
2018-Feb-17 10:54N 29°11' W 094°33'0 0.0
2018-Feb-17 10:27N 29°11' W 094°33'0 0.0
2018-Feb-17 09:54N 29°11' W 094°33'0 0.0
2018-Feb-17 09:18N 29°11' W 094°33'0 0.0
2018-Feb-17 07:39N 29°11' W 094°33'0 0.0
2018-Feb-17 07:30N 29°11' W 094°33'0 0.0
2018-Feb-17 07:00N 29°11' W 094°33'0 0.0
2018-Feb-17 06:06N 29°11' W 094°33'0 0.1
2018-Feb-17 06:00N 29°11' W 094°33'0 0.0
2018-Feb-17 05:24N 29°11' W 094°33'0 0.6
2018-Feb-17 05:00N 29°11' W 094°33'510.3
2018-Feb-17 04:30N 29°16' W 094°35'510.4
2018-Feb-17 04:00N 29°19' W 094°40'610.8
2018-Feb-17 03:28N 29°21' W 094°46'5 9.8
2018-Feb-17 03:01N 29°24' W 094°49'510.5
2018-Feb-17 02:30N 29°29' W 094°52'611.1
2018-Feb-17 02:00N 29°34' W 094°55'611.1
2018-Feb-17 01:30N 29°39' W 094°58'5 9.9
2018-Feb-17 01:00N 29°43' W 095°01'3 6.9
2018-Feb-17 00:30N 29°45' W 095°04'3 5.9
2018-Feb-17 00:00N 29°44' W 095°07'3 6.1
2018-Feb-16 23:31N 29°45' W 095°11'3 5.8
2018-Feb-16 23:00N 29°44' W 095°14'1 1.1
2018-Feb-16 22:29N 29°43' W 095°13'0 0.0
2018-Feb-16 18:46N 29°44' W 095°13'0 0.0
2018-Feb-16 18:25N 29°44' W 095°13'0 0.0
2018-Feb-16 18:01N 29°44' W 095°13'0 0.0
2018-Feb-16 17:31N 29°44' W 095°13'0 0.0
2018-Feb-16 17:01N 29°44' W 095°13'0 0.0
2018-Feb-16 16:25N 29°44' W 095°13'0 0.0
2018-Feb-16 15:58N 29°44' W 095°13'0 0.0
2018-Feb-16 15:28N 29°44' W 095°13'0 0.0
2018-Feb-16 14:58N 29°44' W 095°13'0 0.0
2018-Feb-16 14:28N 29°44' W 095°13'0 0.0
2018-Feb-16 14:01N 29°44' W 095°13'0 0.0
2018-Feb-16 13:25N 29°44' W 095°13'0 0.0
2018-Feb-16 12:55N 29°44' W 095°13'0 0.0
2018-Feb-15 08:22N 29°44' W 095°13'0 0.0
2018-Feb-15 07:16N 29°44' W 095°13'0 0.0
2018-Feb-15 06:52N 29°44' W 095°13'0 0.0
2018-Feb-15 06:22N 29°44' W 095°13'0 0.0
2018-Feb-15 05:43N 29°44' W 095°13'0 0.0
2018-Feb-15 05:28N 29°44' W 095°13'0 0.0
2018-Feb-15 04:52N 29°44' W 095°13'0 0.0
2018-Feb-15 04:28N 29°44' W 095°13'2 0.0
2018-Feb-13 12:39N 29°45' W 095°11'1 5.0
2018-Feb-13 12:29N 29°45' W 095°10'3 5.4
2018-Feb-13 11:57N 29°44' W 095°07'2 5.3
2018-Feb-13 11:30N 29°46' W 095°05'4 8.4
2018-Feb-13 11:00N 29°43' W 095°01'5 9.7
2018-Feb-13 10:30N 29°39' W 094°58'611.8
2018-Feb-13 10:00N 29°34' W 094°55'612.2
2018-Feb-13 09:28N 29°28' W 094°51'612.5
2018-Feb-13 08:59N 29°22' W 094°48'3 6.2
2018-Feb-13 08:27N 29°21' W 094°45'0 0.1
2018-Feb-13 07:48N 29°21' W 094°45'0 0.0
2018-Feb-13 07:30N 29°21' W 094°45'12 0.4
2018-Feb-12 02:11N 29°09' W 094°43'0 0.0
2018-Feb-12 01:41N 29°09' W 094°43'0 0.0
2018-Feb-12 00:05N 29°09' W 094°43'0 0.0
2018-Feb-11 23:38N 29°09' W 094°43'  
Track history (hours):
 
Tides and Currents Weather Stations Pressure Air Temp Water Temp Dewpoint Dewpoint Depression Visibility Wind Speed Wind Dir Waves Ship Positions

EndleSS Horizon

Last reported at 2018-Feb-21 14:35 UTC. Time now 2018-Feb-21 15:38 UTC.
Position N 29°44' W 095°07'.

Length 189 m; draft 6.8 m.

Type: Cargo ship. MMSI: 636015358.

Date/timePositionNaut miles runAvg speedWind from/ knotsBaromVisibWave heightAir tempDewpointWater temp
2018-Feb-21 14:35N 29°44' W 095°07'0 0.1
2018-Feb-21 14:29N 29°44' W 095°07'0 0.0
2018-Feb-21 13:59N 29°44' W 095°07'0 0.0
2018-Feb-21 13:29N 29°44' W 095°07'0 0.0
2018-Feb-21 12:59N 29°44' W 095°07'0 0.0
2018-Feb-21 12:23N 29°44' W 095°07'0 0.0
2018-Feb-21 11:59N 29°44' W 095°07'0 0.0
2018-Feb-21 11:26N 29°44' W 095°07'0 0.0
2018-Feb-21 10:59N 29°44' W 095°07'0 0.0
2018-Feb-21 10:29N 29°44' W 095°07'0 0.0
2018-Feb-21 09:59N 29°44' W 095°07'0 0.0
2018-Feb-21 09:23N 29°44' W 095°07'0 0.0
2018-Feb-21 08:59N 29°44' W 095°07'0 0.0
2018-Feb-21 08:29N 29°44' W 095°07'0 0.0
2018-Feb-21 07:59N 29°44' W 095°07'0 0.0
2018-Feb-21 07:29N 29°44' W 095°07'0 0.0
2018-Feb-21 06:59N 29°44' W 095°07'0 0.0
2018-Feb-21 06:29N 29°44' W 095°07'0 0.0
2018-Feb-21 05:59N 29°44' W 095°07'0 0.0
2018-Feb-21 05:29N 29°44' W 095°07'0 0.0
2018-Feb-21 04:59N 29°44' W 095°07'0 0.0
2018-Feb-21 04:29N 29°44' W 095°07'0 0.0
2018-Feb-21 03:59N 29°44' W 095°07'0 0.0
2018-Feb-21 03:29N 29°44' W 095°07'0 0.0
2018-Feb-21 02:59N 29°44' W 095°07'0 0.0
2018-Feb-21 02:29N 29°44' W 095°07'0 0.0
2018-Feb-21 01:59N 29°44' W 095°07'0 0.0
2018-Feb-21 01:29N 29°44' W 095°07'0 0.0
2018-Feb-21 00:59N 29°44' W 095°07'0 0.1
2018-Feb-21 00:27N 29°44' W 095°07'3 5.3
2018-Feb-20 23:55N 29°44' W 095°03'3 8.0
2018-Feb-20 23:31N 29°42' W 095°01'510.4
2018-Feb-20 23:01N 29°38' W 094°58'612.2
2018-Feb-20 22:31N 29°32' W 094°54'611.7
2018-Feb-20 22:01N 29°27' W 094°51'611.1
2018-Feb-20 21:30N 29°22' W 094°48'1410.5
2018-Feb-20 20:13N 29°17' W 094°34'1 4.9
2018-Feb-20 20:01N 29°16' W 094°33'2 3.7
2018-Feb-20 19:29N 29°15' W 094°31'4 0.9
2018-Feb-20 14:24N 29°11' W 094°33'0 0.0
2018-Feb-20 13:42N 29°11' W 094°33'0 0.0
2018-Feb-20 13:18N 29°11' W 094°33'0 0.0
2018-Feb-20 12:57N 29°11' W 094°33'0 0.0
2018-Feb-20 12:30N 29°11' W 094°33'0 0.0
2018-Feb-20 09:48N 29°11' W 094°33'0 0.0
2018-Feb-20 09:06N 29°11' W 094°33'0 0.0
2018-Feb-20 07:03N 29°11' W 094°33'0 0.0
2018-Feb-20 06:51N 29°11' W 094°33'0 0.0
2018-Feb-20 06:30N 29°11' W 094°33'0 0.0
2018-Feb-19 19:18N 29°11' W 094°33'0 0.0
2018-Feb-19 17:57N 29°11' W 094°33'0 0.0
2018-Feb-19 17:30N 29°11' W 094°33'0 0.0
2018-Feb-19 16:39N 29°11' W 094°33'0 0.0
2018-Feb-19 16:15N 29°11' W 094°33'0 0.0
2018-Feb-19 15:57N 29°11' W 094°33'0 0.0
2018-Feb-19 15:30N 29°11' W 094°33'0 0.0
2018-Feb-19 14:18N 29°11' W 094°33'0 0.0
2018-Feb-19 13:48N 29°11' W 094°33'0 0.0
2018-Feb-19 13:21N 29°11' W 094°33'0 0.0
2018-Feb-19 12:42N 29°11' W 094°33'0 0.0
2018-Feb-19 12:24N 29°11' W 094°33'0 0.0
2018-Feb-19 11:54N 29°11' W 094°33'0 0.0
2018-Feb-19 11:27N 29°11' W 094°33'0 0.0
2018-Feb-19 11:00N 29°11' W 094°33'0 0.0
2018-Feb-19 10:30N 29°11' W 094°33'0 0.0
2018-Feb-19 10:00N 29°11' W 094°33'0 0.0
2018-Feb-19 09:24N 29°11' W 094°33'0 0.0
2018-Feb-19 08:57N 29°11' W 094°33'0 0.0
2018-Feb-19 08:30N 29°11' W 094°33'0 0.0
2018-Feb-19 07:51N 29°11' W 094°33'0 0.0
2018-Feb-19 07:30N 29°11' W 094°33'0 0.0
2018-Feb-19 07:00N 29°11' W 094°33'0 0.0
2018-Feb-19 06:27N 29°11' W 094°33'0 0.0
2018-Feb-19 06:00N 29°11' W 094°33'0 0.0
2018-Feb-19 05:18N 29°11' W 094°33'0 0.0
2018-Feb-19 05:00N 29°11' W 094°33'0 0.0
2018-Feb-19 04:27N 29°11' W 094°33'0 0.0
2018-Feb-19 03:48N 29°11' W 094°33'0 0.0
2018-Feb-19 02:33N 29°11' W 094°33'0 0.0
2018-Feb-19 02:12N 29°11' W 094°33'0 0.0
2018-Feb-19 01:42N 29°11' W 094°33'0 0.0
2018-Feb-19 01:06N 29°11' W 094°33'0 0.0
2018-Feb-18 22:51N 29°11' W 094°33'0 0.0
2018-Feb-18 19:27N 29°11' W 094°33'0 0.0
2018-Feb-18 18:57N 29°11' W 094°33'0 0.0
2018-Feb-18 18:18N 29°11' W 094°33'0 0.0
2018-Feb-18 17:06N 29°11' W 094°33'0 0.0
2018-Feb-18 16:45N 29°11' W 094°33'0 0.0
2018-Feb-18 09:36N 29°11' W 094°33'0 0.0
2018-Feb-18 09:18N 29°11' W 094°33'0 0.0
2018-Feb-18 09:00N 29°11' W 094°33'0 0.0
2018-Feb-18 08:30N 29°11' W 094°33'0 0.0
2018-Feb-18 08:00N 29°11' W 094°33'0 0.0
2018-Feb-18 07:30N 29°11' W 094°33'0 0.1
2018-Feb-18 07:00N 29°11' W 094°33'0 0.0
2018-Feb-18 06:21N 29°11' W 094°33'0 0.0
2018-Feb-18 06:00N 29°11' W 094°33'0 0.0
2018-Feb-18 05:30N 29°11' W 094°33'0 0.0
2018-Feb-18 05:00N 29°11' W 094°33'0 0.0
2018-Feb-18 04:30N 29°11' W 094°33'0 0.0
2018-Feb-18 03:30N 29°11' W 094°33'0 0.0
2018-Feb-18 02:03N 29°11' W 094°33'0 0.0
2018-Feb-18 01:45N 29°11' W 094°33'0 0.0
2018-Feb-18 01:27N 29°11' W 094°33'0 0.0
2018-Feb-18 00:57N 29°11' W 094°33'0 0.0
2018-Feb-18 00:09N 29°11' W 094°33'0 0.0
2018-Feb-17 23:48N 29°11' W 094°33'0 0.1
2018-Feb-17 23:27N 29°11' W 094°33'0 0.0
2018-Feb-17 22:51N 29°11' W 094°33'0 0.0
2018-Feb-17 22:30N 29°11' W 094°33'0 0.0
2018-Feb-17 21:57N 29°11' W 094°33'0 0.0
2018-Feb-17 21:21N 29°11' W 094°33'0 0.0
2018-Feb-17 17:24N 29°11' W 094°33'0 0.0
2018-Feb-17 12:51N 29°11' W 094°33'0 0.0
2018-Feb-17 12:21N 29°11' W 094°33'0 0.0
2018-Feb-17 12:00N 29°11' W 094°33'0 0.0
2018-Feb-17 11:24N 29°11' W 094°33'0 0.0
2018-Feb-17 10:54N 29°11' W 094°33'0 0.0
2018-Feb-17 10:27N 29°11' W 094°33'0 0.0
2018-Feb-17 09:54N 29°11' W 094°33'0 0.0
2018-Feb-17 09:18N 29°11' W 094°33'0 0.0
2018-Feb-17 07:39N 29°11' W 094°33'0 0.0
2018-Feb-17 07:30N 29°11' W 094°33'0 0.0
2018-Feb-17 07:00N 29°11' W 094°33'0 0.0
2018-Feb-17 06:06N 29°11' W 094°33'0 0.1
2018-Feb-17 06:00N 29°11' W 094°33'0 0.0
2018-Feb-17 05:24N 29°11' W 094°33'0 0.6
2018-Feb-17 05:00N 29°11' W 094°33'510.3
2018-Feb-17 04:30N 29°16' W 094°35'510.4
2018-Feb-17 04:00N 29°19' W 094°40'610.8
2018-Feb-17 03:28N 29°21' W 094°46'5 9.8
2018-Feb-17 03:01N 29°24' W 094°49'510.5
2018-Feb-17 02:30N 29°29' W 094°52'611.1
2018-Feb-17 02:00N 29°34' W 094°55'611.1
2018-Feb-17 01:30N 29°39' W 094°58'5 9.9
2018-Feb-17 01:00N 29°43' W 095°01'3 6.9
2018-Feb-17 00:30N 29°45' W 095°04'3 5.9
2018-Feb-17 00:00N 29°44' W 095°07'3 6.1
2018-Feb-16 23:31N 29°45' W 095°11'3 5.8
2018-Feb-16 23:00N 29°44' W 095°14'1 1.1
2018-Feb-16 22:29N 29°43' W 095°13'0 0.0
2018-Feb-16 18:46N 29°44' W 095°13'0 0.0
2018-Feb-16 18:25N 29°44' W 095°13'0 0.0
2018-Feb-16 18:01N 29°44' W 095°13'0 0.0
2018-Feb-16 17:31N 29°44' W 095°13'0 0.0
2018-Feb-16 17:01N 29°44' W 095°13'0 0.0
2018-Feb-16 16:25N 29°44' W 095°13'0 0.0
2018-Feb-16 15:58N 29°44' W 095°13'0 0.0
2018-Feb-16 15:28N 29°44' W 095°13'0 0.0
2018-Feb-16 14:58N 29°44' W 095°13'0 0.0
2018-Feb-16 14:28N 29°44' W 095°13'0 0.0
2018-Feb-16 14:01N 29°44' W 095°13'0 0.0
2018-Feb-16 13:25N 29°44' W 095°13'0 0.0
2018-Feb-16 12:55N 29°44' W 095°13'0 0.0
2018-Feb-15 08:22N 29°44' W 095°13'0 0.0
2018-Feb-15 07:16N 29°44' W 095°13'0 0.0
2018-Feb-15 06:52N 29°44' W 095°13'0 0.0
2018-Feb-15 06:22N 29°44' W 095°13'0 0.0
2018-Feb-15 05:43N 29°44' W 095°13'0 0.0
2018-Feb-15 05:28N 29°44' W 095°13'0 0.0
2018-Feb-15 04:52N 29°44' W 095°13'0 0.0
2018-Feb-15 04:28N 29°44' W 095°13'2 0.0
2018-Feb-13 12:39N 29°45' W 095°11'1 5.0
2018-Feb-13 12:29N 29°45' W 095°10'3 5.4
2018-Feb-13 11:57N 29°44' W 095°07'2 5.3
2018-Feb-13 11:30N 29°46' W 095°05'4 8.4
2018-Feb-13 11:00N 29°43' W 095°01'5 9.7
2018-Feb-13 10:30N 29°39' W 094°58'611.8
2018-Feb-13 10:00N 29°34' W 094°55'612.2
2018-Feb-13 09:28N 29°28' W 094°51'612.5
2018-Feb-13 08:59N 29°22' W 094°48'3 6.2
2018-Feb-13 08:27N 29°21' W 094°45'0 0.1
2018-Feb-13 07:48N 29°21' W 094°45'0 0.0
2018-Feb-13 07:30N 29°21' W 094°45'12 0.4
2018-Feb-12 02:11N 29°09' W 094°43'0 0.0
2018-Feb-12 01:41N 29°09' W 094°43'0 0.0
2018-Feb-12 00:05N 29°09' W 094°43'0 0.0
2018-Feb-11 23:38N 29°09' W 094°43'  

Dump ship's entire track history